sensor_id;sensor_type;location;lat;lon;timestamp;pressure;altitude;pressure_sealevel;temperature;humidity
37368;BME280;23240;43.210;27.910;2022-12-29T00:01:32;102397.88;;;2.60;100.00
37368;BME280;23240;43.210;27.910;2022-12-29T00:03:58;102396.34;;;2.50;100.00
37368;BME280;23240;43.210;27.910;2022-12-29T00:06:24;102396.22;;;2.54;100.00
37368;BME280;23240;43.210;27.910;2022-12-29T00:08:49;102392.88;;;2.46;100.00
37368;BME280;23240;43.210;27.910;2022-12-29T00:11:17;102396.44;;;2.45;100.00
37368;BME280;23240;43.210;27.910;2022-12-29T00:13:43;102391.16;;;2.45;100.00
37368;BME280;23240;43.210;27.910;2022-12-29T00:16:28;102389.34;;;2.47;100.00
37368;BME280;23240;43.210;27.910;2022-12-29T00:18:54;102401.81;;;2.41;100.00
37368;BME280;23240;43.210;27.910;2022-12-29T00:21:21;102398.34;;;2.39;100.00
37368;BME280;23240;43.210;27.910;2022-12-29T00:24:19;102388.59;;;2.42;100.00
37368;BME280;23240;43.210;27.910;2022-12-29T00:27:13;102392.00;;;2.46;100.00
37368;BME280;23240;43.210;27.910;2022-12-29T00:29:57;102386.72;;;2.46;100.00
37368;BME280;23240;43.210;27.910;2022-12-29T00:32:41;102395.50;;;2.48;100.00
37368;BME280;23240;43.210;27.910;2022-12-29T00:35:37;102392.09;;;2.41;100.00
37368;BME280;23240;43.210;27.910;2022-12-29T00:38:07;102392.91;;;2.45;100.00
37368;BME280;23240;43.210;27.910;2022-12-29T00:40:52;102380.59;;;2.44;100.00
37368;BME280;23240;43.210;27.910;2022-12-29T00:43:36;102387.53;;;2.49;100.00
37368;BME280;23240;43.210;27.910;2022-12-29T00:46:20;102386.63;;;2.50;100.00
37368;BME280;23240;43.210;27.910;2022-12-29T00:48:45;102385.72;;;2.51;100.00
37368;BME280;23240;43.210;27.910;2022-12-29T00:51:29;102381.22;;;2.56;100.00
37368;BME280;23240;43.210;27.910;2022-12-29T00:53:55;102382.03;;;2.58;100.00
37368;BME280;23240;43.210;27.910;2022-12-29T00:56:20;102374.94;;;2.61;100.00
37368;BME280;23240;43.210;27.910;2022-12-29T00:58:46;102375.69;;;2.66;100.00
37368;BME280;23240;43.210;27.910;2022-12-29T01:01:11;102379.03;;;2.74;100.00
37368;BME280;23240;43.210;27.910;2022-12-29T01:03:37;102373.84;;;2.71;100.00
37368;BME280;23240;43.210;27.910;2022-12-29T01:06:05;102370.19;;;2.75;100.00
37368;BME280;23240;43.210;27.910;2022-12-29T01:08:31;102370.25;;;2.73;100.00
37368;BME280;23240;43.210;27.910;2022-12-29T01:13:30;102352.69;;;2.69;100.00
37368;BME280;23240;43.210;27.910;2022-12-29T01:15:56;102358.06;;;2.66;100.00
37368;BME280;23240;43.210;27.910;2022-12-29T01:18:22;102358.22;;;2.58;100.00
37368;BME280;23240;43.210;27.910;2022-12-29T01:20:48;102353.16;;;2.49;100.00
37368;BME280;23240;43.210;27.910;2022-12-29T01:23:14;102343.53;;;2.45;100.00
37368;BME280;23240;43.210;27.910;2022-12-29T01:25:39;102335.44;;;2.51;100.00
37368;BME280;23240;43.210;27.910;2022-12-29T01:28:05;102339.09;;;2.47;100.00
37368;BME280;23240;43.210;27.910;2022-12-29T01:30:32;102326.91;;;2.40;100.00
37368;BME280;23240;43.210;27.910;2022-12-29T01:32:58;102328.72;;;2.37;100.00
37368;BME280;23240;43.210;27.910;2022-12-29T01:35:23;102323.50;;;2.35;100.00
37368;BME280;23240;43.210;27.910;2022-12-29T01:37:49;102324.25;;;2.40;100.00
37368;BME280;23240;43.210;27.910;2022-12-29T01:40:14;102319.84;;;2.41;100.00
37368;BME280;23240;43.210;27.910;2022-12-29T01:42:40;102306.50;;;2.45;100.00
37368;BME280;23240;43.210;27.910;2022-12-29T01:45:11;102305.59;;;2.46;100.00
37368;BME280;23240;43.210;27.910;2022-12-29T01:47:48;102296.69;;;2.50;100.00
37368;BME280;23240;43.210;27.910;2022-12-29T01:50:31;102298.56;;;2.47;100.00
37368;BME280;23240;43.210;27.910;2022-12-29T01:53:17;102295.16;;;2.40;100.00
37368;BME280;23240;43.210;27.910;2022-12-29T01:55:54;102291.56;;;2.44;100.00
37368;BME280;23240;43.210;27.910;2022-12-29T01:58:22;102285.25;;;2.50;100.00
37368;BME280;23240;43.210;27.910;2022-12-29T02:00:50;102280.81;;;2.50;100.00
37368;BME280;23240;43.210;27.910;2022-12-29T02:03:18;102275.56;;;2.49;100.00
37368;BME280;23240;43.210;27.910;2022-12-29T02:05:50;102283.66;;;2.43;100.00
37368;BME280;23240;43.210;27.910;2022-12-29T02:08:20;102277.47;;;2.44;100.00
37368;BME280;23240;43.210;27.910;2022-12-29T02:10:47;102273.97;;;2.42;100.00
37368;BME280;23240;43.210;27.910;2022-12-29T02:13:16;102278.28;;;2.46;100.00
37368;BME280;23240;43.210;27.910;2022-12-29T02:19:00;102282.00;;;2.39;100.00
37368;BME280;23240;43.210;27.910;2022-12-29T02:32:31;102273.00;;;2.46;100.00
37368;BME280;23240;43.210;27.910;2022-12-29T02:38:00;102264.09;;;2.50;100.00
37368;BME280;23240;43.210;27.910;2022-12-29T02:40:46;102262.34;;;2.49;100.00
37368;BME280;23240;43.210;27.910;2022-12-29T02:43:18;102253.56;;;2.48;100.00
37368;BME280;23240;43.210;27.910;2022-12-29T02:45:55;102246.31;;;2.55;100.00
37368;BME280;23240;43.210;27.910;2022-12-29T02:48:30;102244.38;;;2.63;100.00
37368;BME280;23240;43.210;27.910;2022-12-29T02:51:15;102257.66;;;2.62;100.00
37368;BME280;23240;43.210;27.910;2022-12-29T02:53:43;102251.41;;;2.64;100.00
37368;BME280;23240;43.210;27.910;2022-12-29T02:56:28;102247.19;;;2.55;100.00
37368;BME280;23240;43.210;27.910;2022-12-29T02:58:53;102258.56;;;2.59;100.00
37368;BME280;23240;43.210;27.910;2022-12-29T03:04:40;102243.13;;;2.41;100.00
37368;BME280;23240;43.210;27.910;2022-12-29T03:12:35;102242.22;;;2.43;100.00
37368;BME280;23240;43.210;27.910;2022-12-29T03:15:28;102242.13;;;2.46;100.00
37368;BME280;23240;43.210;27.910;2022-12-29T03:18:21;102248.31;;;2.47;100.00
37368;BME280;23240;43.210;27.910;2022-12-29T03:20:57;102250.84;;;2.50;100.00
37368;BME280;23240;43.210;27.910;2022-12-29T03:23:27;102256.09;;;2.51;100.00
37368;BME280;23240;43.210;27.910;2022-12-29T03:25:56;102252.63;;;2.49;100.00
37368;BME280;23240;43.210;27.910;2022-12-29T03:28:29;102249.06;;;2.50;100.00
37368;BME280;23240;43.210;27.910;2022-12-29T03:30:58;102253.34;;;2.56;100.00
37368;BME280;23240;43.210;27.910;2022-12-29T03:33:27;102258.69;;;2.54;100.00
37368;BME280;23240;43.210;27.910;2022-12-29T03:36:00;102263.88;;;2.59;100.00
37368;BME280;23240;43.210;27.910;2022-12-29T03:41:10;102265.16;;;2.41;100.00
37368;BME280;23240;43.210;27.910;2022-12-29T03:43:37;102273.44;;;2.27;100.00
37368;BME280;23240;43.210;27.910;2022-12-29T03:46:02;102275.44;;;2.16;100.00
37368;BME280;23240;43.210;27.910;2022-12-29T03:48:28;102272.47;;;1.91;100.00
37368;BME280;23240;43.210;27.910;2022-12-29T03:50:54;102271.69;;;1.86;100.00
37368;BME280;23240;43.210;27.910;2022-12-29T03:53:19;102277.03;;;1.83;100.00
37368;BME280;23240;43.210;27.910;2022-12-29T03:55:45;102285.91;;;1.80;100.00
37368;BME280;23240;43.210;27.910;2022-12-29T03:58:10;102286.91;;;1.75;100.00
37368;BME280;23240;43.210;27.910;2022-12-29T04:00:36;102291.47;;;1.67;100.00
37368;BME280;23240;43.210;27.910;2022-12-29T04:03:01;102289.84;;;1.60;100.00
37368;BME280;23240;43.210;27.910;2022-12-29T04:05:27;102291.72;;;1.53;100.00
37368;BME280;23240;43.210;27.910;2022-12-29T04:07:52;102295.41;;;1.44;100.00
37368;BME280;23240;43.210;27.910;2022-12-29T04:10:18;102298.94;;;1.43;100.00
37368;BME280;23240;43.210;27.910;2022-12-29T04:12:43;102299.03;;;1.40;100.00
37368;BME280;23240;43.210;27.910;2022-12-29T04:15:11;102291.72;;;1.53;100.00
37368;BME280;23240;43.210;27.910;2022-12-29T04:17:37;102297.03;;;1.51;100.00
37368;BME280;23240;43.210;27.910;2022-12-29T04:20:03;102298.69;;;1.57;100.00
37368;BME280;23240;43.210;27.910;2022-12-29T04:22:47;102293.44;;;1.56;100.00
37368;BME280;23240;43.210;27.910;2022-12-29T04:25:12;102294.31;;;1.54;100.00
37368;BME280;23240;43.210;27.910;2022-12-29T04:27:37;102294.22;;;1.59;100.00
37368;BME280;23240;43.210;27.910;2022-12-29T04:30:03;102301.28;;;1.60;100.00
37368;BME280;23240;43.210;27.910;2022-12-29T04:32:29;102296.69;;;1.70;100.00
37368;BME280;23240;43.210;27.910;2022-12-29T04:34:54;102306.25;;;1.75;100.00
37368;BME280;23240;43.210;27.910;2022-12-29T04:37:20;102292.88;;;1.83;100.00
37368;BME280;23240;43.210;27.910;2022-12-29T04:39:45;102290.13;;;1.88;100.00
37368;BME280;23240;43.210;27.910;2022-12-29T04:42:11;102298.91;;;1.90;100.00
37368;BME280;23240;43.210;27.910;2022-12-29T04:44:36;102293.47;;;1.97;100.00
37368;BME280;23240;43.210;27.910;2022-12-29T04:47:02;102296.88;;;2.02;100.00
37368;BME280;23240;43.210;27.910;2022-12-29T04:49:27;102296.81;;;2.05;100.00
37368;BME280;23240;43.210;27.910;2022-12-29T04:51:53;102301.28;;;2.03;100.00
37368;BME280;23240;43.210;27.910;2022-12-29T04:54:18;102304.69;;;2.07;100.00
37368;BME280;23240;43.210;27.910;2022-12-29T04:56:44;102296.00;;;2.03;100.00
37368;BME280;23240;43.210;27.910;2022-12-29T04:59:09;102300.44;;;2.01;100.00
37368;BME280;23240;43.210;27.910;2022-12-29T05:01:35;102301.16;;;2.10;100.00
37368;BME280;23240;43.210;27.910;2022-12-29T05:04:00;102295.03;;;2.06;100.00
37368;BME280;23240;43.210;27.910;2022-12-29T05:06:26;102299.66;;;1.96;100.00
37368;BME280;23240;43.210;27.910;2022-12-29T05:08:51;102303.16;;;1.98;100.00
37368;BME280;23240;43.210;27.910;2022-12-29T05:11:16;102301.34;;;2.00;100.00
37368;BME280;23240;43.210;27.910;2022-12-29T05:13:45;102299.59;;;1.99;100.00
37368;BME280;23240;43.210;27.910;2022-12-29T05:16:11;102307.44;;;2.04;100.00
37368;BME280;23240;43.210;27.910;2022-12-29T05:18:37;102296.81;;;2.05;100.00
37368;BME280;23240;43.210;27.910;2022-12-29T05:21:02;102298.41;;;2.13;100.00
37368;BME280;23240;43.210;27.910;2022-12-29T05:23:28;102292.34;;;2.09;100.00
37368;BME280;23240;43.210;27.910;2022-12-29T05:25:53;102286.84;;;2.18;100.00
37368;BME280;23240;43.210;27.910;2022-12-29T05:28:19;102293.84;;;2.21;100.00
37368;BME280;23240;43.210;27.910;2022-12-29T05:30:48;102292.97;;;2.20;100.00
37368;BME280;23240;43.210;27.910;2022-12-29T05:33:13;102299.06;;;2.24;100.00
37368;BME280;23240;43.210;27.910;2022-12-29T05:35:39;102287.47;;;2.29;100.00
37368;BME280;23240;43.210;27.910;2022-12-29T05:38:04;102293.63;;;2.30;100.00
37368;BME280;23240;43.210;27.910;2022-12-29T05:40:30;102295.31;;;2.34;100.00
37368;BME280;23240;43.210;27.910;2022-12-29T05:42:55;102303.25;;;2.34;100.00
37368;BME280;23240;43.210;27.910;2022-12-29T05:45:21;102300.59;;;2.34;100.00
37368;BME280;23240;43.210;27.910;2022-12-29T05:47:47;102292.56;;;2.39;100.00
37368;BME280;23240;43.210;27.910;2022-12-29T05:50:13;102298.72;;;2.39;100.00
37368;BME280;23240;43.210;27.910;2022-12-29T05:52:38;102298.66;;;2.42;100.00
37368;BME280;23240;43.210;27.910;2022-12-29T05:55:04;102308.22;;;2.48;100.00
37368;BME280;23240;43.210;27.910;2022-12-29T05:57:30;102300.25;;;2.49;100.00
37368;BME280;23240;43.210;27.910;2022-12-29T05:59:55;102297.50;;;2.54;100.00
37368;BME280;23240;43.210;27.910;2022-12-29T06:02:20;102303.59;;;2.56;100.00
37368;BME280;23240;43.210;27.910;2022-12-29T06:04:46;102301.75;;;2.60;100.00
37368;BME280;23240;43.210;27.910;2022-12-29T06:07:11;102301.63;;;2.66;100.00
37368;BME280;23240;43.210;27.910;2022-12-29T06:09:37;102305.16;;;2.66;100.00
37368;BME280;23240;43.210;27.910;2022-12-29T06:12:02;102304.16;;;2.70;100.00
37368;BME280;23240;43.210;27.910;2022-12-29T06:14:28;102306.69;;;2.75;100.00
37368;BME280;23240;43.210;27.910;2022-12-29T06:16:53;102302.91;;;2.87;100.00
37368;BME280;23240;43.210;27.910;2022-12-29T06:19:19;102300.25;;;2.85;100.00
37368;BME280;23240;43.210;27.910;2022-12-29T06:21:44;102304.66;;;2.86;100.00
37368;BME280;23240;43.210;27.910;2022-12-29T06:24:10;102297.50;;;2.91;100.00
37368;BME280;23240;43.210;27.910;2022-12-29T06:26:36;102300.09;;;2.93;100.00
37368;BME280;23240;43.210;27.910;2022-12-29T06:29:02;102302.63;;;2.97;100.00
37368;BME280;23240;43.210;27.910;2022-12-29T06:31:28;102297.16;;;3.03;100.00
37368;BME280;23240;43.210;27.910;2022-12-29T06:33:53;102299.69;;;3.09;100.00
37368;BME280;23240;43.210;27.910;2022-12-29T06:36:19;102303.88;;;3.17;100.00
37368;BME280;23240;43.210;27.910;2022-12-29T06:38:44;102306.38;;;3.23;100.00
37368;BME280;23240;43.210;27.910;2022-12-29T06:41:10;102304.44;;;3.29;100.00
37368;BME280;23240;43.210;27.910;2022-12-29T06:43:35;102308.59;;;3.38;100.00
37368;BME280;23240;43.210;27.910;2022-12-29T06:46:04;102302.19;;;3.47;100.00
37368;BME280;23240;43.210;27.910;2022-12-29T06:48:30;102301.16;;;3.52;100.00
37368;BME280;23240;43.210;27.910;2022-12-29T06:50:55;102296.59;;;3.57;100.00
37368;BME280;23240;43.210;27.910;2022-12-29T06:53:21;102284.88;;;3.68;100.00
37368;BME280;23240;43.210;27.910;2022-12-29T06:55:46;102287.84;;;4.16;100.00
37368;BME280;23240;43.210;27.910;2022-12-29T06:58:12;102268.91;;;4.83;100.00
37368;BME280;23240;43.210;27.910;2022-12-29T07:00:37;102272.13;;;4.93;100.00
37368;BME280;23240;43.210;27.910;2022-12-29T07:03:03;102266.88;;;4.91;100.00
37368;BME280;23240;43.210;27.910;2022-12-29T07:05:28;102271.22;;;4.94;100.00
37368;BME280;23240;43.210;27.910;2022-12-29T07:07:56;102275.63;;;4.93;100.00
37368;BME280;23240;43.210;27.910;2022-12-29T07:10:22;102277.09;;;5.03;100.00
37368;BME280;23240;43.210;27.910;2022-12-29T07:12:47;102279.38;;;5.14;100.00
37368;BME280;23240;43.210;27.910;2022-12-29T07:15:13;102276.44;;;5.22;100.00
37368;BME280;23240;43.210;27.910;2022-12-29T07:17:38;102271.31;;;5.42;100.00
37368;BME280;23240;43.210;27.910;2022-12-29T07:20:04;102283.47;;;5.73;100.00
37368;BME280;23240;43.210;27.910;2022-12-29T07:22:30;102273.41;;;6.28;100.00
37368;BME280;23240;43.210;27.910;2022-12-29T07:24:56;102282.13;;;6.55;100.00
37368;BME280;23240;43.210;27.910;2022-12-29T07:27:21;102278.34;;;6.60;100.00
37368;BME280;23240;43.210;27.910;2022-12-29T07:29:46;102274.63;;;6.64;100.00
37368;BME280;23240;43.210;27.910;2022-12-29T07:32:12;102271.44;;;6.77;100.00
37368;BME280;23240;43.210;27.910;2022-12-29T07:34:37;102265.81;;;6.84;100.00
37368;BME280;23240;43.210;27.910;2022-12-29T07:37:05;102274.28;;;6.94;100.00
37368;BME280;23240;43.210;27.910;2022-12-29T07:39:30;102280.84;;;7.07;100.00
37368;BME280;23240;43.210;27.910;2022-12-29T07:41:56;102279.38;;;7.20;100.00
37368;BME280;23240;43.210;27.910;2022-12-29T07:44:21;102280.72;;;7.31;100.00
37368;BME280;23240;43.210;27.910;2022-12-29T07:46:47;102274.84;;;7.43;100.00
37368;BME280;23240;43.210;27.910;2022-12-29T07:49:12;102269.09;;;7.52;100.00
37368;BME280;23240;43.210;27.910;2022-12-29T07:51:38;102274.81;;;7.63;100.00
37368;BME280;23240;43.210;27.910;2022-12-29T07:54:03;102270.00;;;7.71;100.00
37368;BME280;23240;43.210;27.910;2022-12-29T07:56:29;102271.59;;;7.76;100.00
37368;BME280;23240;43.210;27.910;2022-12-29T07:58:54;102268.81;;;7.79;100.00
37368;BME280;23240;43.210;27.910;2022-12-29T08:01:20;102267.56;;;7.86;100.00
37368;BME280;23240;43.210;27.910;2022-12-29T08:03:46;102269.94;;;7.92;100.00
37368;BME280;23240;43.210;27.910;2022-12-29T08:06:12;102268.09;;;7.94;100.00
37368;BME280;23240;43.210;27.910;2022-12-29T08:08:37;102268.75;;;7.99;100.00
37368;BME280;23240;43.210;27.910;2022-12-29T08:11:03;102268.53;;;8.04;100.00
37368;BME280;23240;43.210;27.910;2022-12-29T08:13:29;102271.91;;;8.07;100.00
37368;BME280;23240;43.210;27.910;2022-12-29T08:15:54;102270.13;;;8.08;100.00
37368;BME280;23240;43.210;27.910;2022-12-29T08:18:20;102269.91;;;8.12;100.00
37368;BME280;23240;43.210;27.910;2022-12-29T08:20:45;102260.09;;;8.13;100.00
37368;BME280;23240;43.210;27.910;2022-12-29T08:23:11;102274.13;;;8.16;100.00
37368;BME280;23240;43.210;27.910;2022-12-29T08:25:36;102271.75;;;8.10;100.00
37368;BME280;23240;43.210;27.910;2022-12-29T08:28:02;102276.25;;;8.10;100.00
37368;BME280;23240;43.210;27.910;2022-12-29T08:30:27;102267.38;;;8.09;100.00
37368;BME280;23240;43.210;27.910;2022-12-29T08:32:53;102268.53;;;8.04;100.00
37368;BME280;23240;43.210;27.910;2022-12-29T08:35:18;102266.81;;;8.03;100.00
37368;BME280;23240;43.210;27.910;2022-12-29T08:37:44;102265.13;;;8.00;100.00
37368;BME280;23240;43.210;27.910;2022-12-29T08:40:10;102267.59;;;8.05;100.00
37368;BME280;23240;43.210;27.910;2022-12-29T08:42:35;102262.03;;;8.09;100.00
37368;BME280;23240;43.210;27.910;2022-12-29T08:45:01;102257.66;;;8.08;100.00
37368;BME280;23240;43.210;27.910;2022-12-29T08:47:27;102256.84;;;8.06;100.00
37368;BME280;23240;43.210;27.910;2022-12-29T08:49:52;102243.13;;;8.14;100.00
37368;BME280;23240;43.210;27.910;2022-12-29T08:52:18;102244.78;;;8.16;100.00
37368;BME280;23240;43.210;27.910;2022-12-29T08:54:43;102246.44;;;8.19;100.00
37368;BME280;23240;43.210;27.910;2022-12-29T08:57:09;102246.53;;;8.17;100.00
37368;BME280;23240;43.210;27.910;2022-12-29T08:59:34;102241.91;;;8.21;100.00
37368;BME280;23240;43.210;27.910;2022-12-29T09:02:00;102232.44;;;8.33;100.00
37368;BME280;23240;43.210;27.910;2022-12-29T09:04:26;102229.41;;;8.40;100.00
37368;BME280;23240;43.210;27.910;2022-12-29T09:06:52;102238.94;;;8.46;100.00
37368;BME280;23240;43.210;27.910;2022-12-29T09:09:18;102232.50;;;8.50;100.00
37368;BME280;23240;43.210;27.910;2022-12-29T09:11:44;102238.88;;;8.47;100.00
37368;BME280;23240;43.210;27.910;2022-12-29T09:14:09;102220.09;;;8.49;100.00
37368;BME280;23240;43.210;27.910;2022-12-29T09:16:35;102227.66;;;8.58;100.00
37368;BME280;23240;43.210;27.910;2022-12-29T09:19:01;102224.22;;;8.56;100.00
37368;BME280;23240;43.210;27.910;2022-12-29T09:21:27;102220.66;;;8.56;100.00
37368;BME280;23240;43.210;27.910;2022-12-29T09:23:52;102221.44;;;8.58;100.00
37368;BME280;23240;43.210;27.910;2022-12-29T09:26:18;102223.09;;;8.60;100.00
37368;BME280;23240;43.210;27.910;2022-12-29T09:28:43;102218.56;;;8.62;100.00
37368;BME280;23240;43.210;27.910;2022-12-29T09:31:10;102214.84;;;8.65;100.00
37368;BME280;23240;43.210;27.910;2022-12-29T09:33:35;102215.47;;;8.70;100.00
37368;BME280;23240;43.210;27.910;2022-12-29T09:36:01;102217.00;;;8.75;100.00
37368;BME280;23240;43.210;27.910;2022-12-29T09:38:28;102217.91;;;8.74;100.00
37368;BME280;23240;43.210;27.910;2022-12-29T09:40:57;102220.22;;;8.82;100.00
37368;BME280;23240;43.210;27.910;2022-12-29T09:46:31;102209.59;;;8.98;100.00
37368;BME280;23240;43.210;27.910;2022-12-29T09:49:09;102204.88;;;9.03;100.00
37368;BME280;23240;43.210;27.910;2022-12-29T09:51:38;102199.38;;;9.06;100.00
37368;BME280;23240;43.210;27.910;2022-12-29T09:54:39;102196.38;;;9.12;100.00
37368;BME280;23240;43.210;27.910;2022-12-29T09:57:15;102191.91;;;9.13;100.00
37368;BME280;23240;43.210;27.910;2022-12-29T09:59:42;102188.38;;;9.12;100.00
37368;BME280;23240;43.210;27.910;2022-12-29T10:04:59;102181.53;;;9.24;100.00
37368;BME280;23240;43.210;27.910;2022-12-29T10:07:45;102178.09;;;9.38;100.00
37368;BME280;23240;43.210;27.910;2022-12-29T10:10:37;102177.78;;;9.44;100.00
37368;BME280;23240;43.210;27.910;2022-12-29T10:23:44;102155.69;;;9.56;100.00
37368;BME280;23240;43.210;27.910;2022-12-29T10:26:18;102147.63;;;9.58;100.00
37368;BME280;23240;43.210;27.910;2022-12-29T10:29:02;102149.84;;;9.65;100.00
37368;BME280;23240;43.210;27.910;2022-12-29T10:31:43;102150.28;;;9.73;100.00
37368;BME280;23240;43.210;27.910;2022-12-29T10:34:20;102144.34;;;9.84;100.00
37368;BME280;23240;43.210;27.910;2022-12-29T10:36:50;102133.03;;;9.79;100.00
37368;BME280;23240;43.210;27.910;2022-12-29T10:41:54;102135.09;;;9.58;100.00
37368;BME280;23240;43.210;27.910;2022-12-29T10:44:21;102138.69;;;9.57;100.00
37368;BME280;23240;43.210;27.910;2022-12-29T10:47:15;102134.41;;;9.55;100.00
37368;BME280;23240;43.210;27.910;2022-12-29T10:49:42;102135.88;;;9.60;100.00
37368;BME280;23240;43.210;27.910;2022-12-29T10:52:11;102125.41;;;9.56;100.00
37368;BME280;23240;43.210;27.910;2022-12-29T10:59:50;102127.56;;;9.81;100.00
37368;BME280;23240;43.210;27.910;2022-12-29T11:02:38;102121.53;;;9.93;100.00
37368;BME280;23240;43.210;27.910;2022-12-29T11:08:02;102114.34;;;10.09;100.00
37368;BME280;23240;43.210;27.910;2022-12-29T11:13:10;102119.97;;;10.20;100.00
37368;BME280;23240;43.210;27.910;2022-12-29T11:15:42;102114.50;;;10.22;100.00
37368;BME280;23240;43.210;27.910;2022-12-29T11:18:23;102110.47;;;10.31;100.00
37368;BME280;23240;43.210;27.910;2022-12-29T11:21:01;102114.97;;;10.30;100.00
37368;BME280;23240;43.210;27.910;2022-12-29T11:23:36;102115.47;;;10.37;100.00
37368;BME280;23240;43.210;27.910;2022-12-29T11:28:41;102111.41;;;10.29;100.00
37368;BME280;23240;43.210;27.910;2022-12-29T11:31:08;102100.53;;;10.33;100.00
37368;BME280;23240;43.210;27.910;2022-12-29T11:33:38;102106.25;;;10.26;100.00
37368;BME280;23240;43.210;27.910;2022-12-29T11:36:17;102101.38;;;10.17;100.00
37368;BME280;23240;43.210;27.910;2022-12-29T11:38:52;102107.72;;;10.16;100.00
37368;BME280;23240;43.210;27.910;2022-12-29T11:41:20;102102.09;;;10.21;100.00
37368;BME280;23240;43.210;27.910;2022-12-29T11:43:46;102100.44;;;10.18;100.00
37368;BME280;23240;43.210;27.910;2022-12-29T11:46:33;102104.22;;;10.14;100.00
37368;BME280;23240;43.210;27.910;2022-12-29T11:49:00;102097.91;;;10.15;100.00
37368;BME280;23240;43.210;27.910;2022-12-29T11:51:27;102100.44;;;10.18;100.00
37368;BME280;23240;43.210;27.910;2022-12-29T11:53:57;102101.13;;;10.22;100.00
37368;BME280;23240;43.210;27.910;2022-12-29T11:56:41;102095.78;;;10.22;100.00
37368;BME280;23240;43.210;27.910;2022-12-29T12:02:26;102098.69;;;10.33;100.00
37368;BME280;23240;43.210;27.910;2022-12-29T12:05:06;102096.78;;;10.19;100.00
37368;BME280;23240;43.210;27.910;2022-12-29T12:07:40;102095.78;;;10.22;100.00
37368;BME280;23240;43.210;27.910;2022-12-29T12:10:27;102079.38;;;10.28;100.00
37368;BME280;23240;43.210;27.910;2022-12-29T12:15:46;102072.97;;;10.31;100.00
37368;BME280;23240;43.210;27.910;2022-12-29T12:18:38;102071.66;;;10.38;100.00
37368;BME280;23240;43.210;27.910;2022-12-29T12:26:18;102066.84;;;10.28;100.00
37368;BME280;23240;43.210;27.910;2022-12-29T12:28:52;102065.22;;;10.26;100.00
37368;BME280;23240;43.210;27.910;2022-12-29T12:31:45;102057.94;;;10.28;100.00
37368;BME280;23240;43.210;27.910;2022-12-29T12:34:26;102065.00;;;10.29;100.00
37368;BME280;23240;43.210;27.910;2022-12-29T12:39:35;102064.56;;;10.37;100.00
37368;BME280;23240;43.210;27.910;2022-12-29T13:30:10;102074.13;;;10.11;100.00
37368;BME280;23240;43.210;27.910;2022-12-29T13:37:36;102071.66;;;9.92;100.00
37368;BME280;23240;43.210;27.910;2022-12-29T13:40:14;102073.72;;;9.87;100.00
37368;BME280;23240;43.210;27.910;2022-12-29T13:42:41;102080.19;;;9.83;100.00
37368;BME280;23240;43.210;27.910;2022-12-29T13:45:15;102087.03;;;9.72;100.00
37368;BME280;23240;43.210;27.910;2022-12-29T13:50:35;102087.72;;;9.60;100.00
37368;BME280;23240;43.210;27.910;2022-12-29T13:58:33;102085.19;;;9.41;100.00
37368;BME280;23240;43.210;27.910;2022-12-29T14:04:04;102085.09;;;9.27;100.00
37368;BME280;23240;43.210;27.910;2022-12-29T14:06:35;102086.28;;;9.21;100.00
37368;BME280;23240;43.210;27.910;2022-12-29T14:15:04;102091.03;;;9.16;100.00
37368;BME280;23240;43.210;27.910;2022-12-29T14:17:32;102094.56;;;9.17;100.00
37368;BME280;23240;43.210;27.910;2022-12-29T14:19:58;102093.00;;;9.13;100.00
37368;BME280;23240;43.210;27.910;2022-12-29T14:22:27;102098.34;;;9.13;100.00
37368;BME280;23240;43.210;27.910;2022-12-29T14:24:53;102092.13;;;9.12;100.00
37368;BME280;23240;43.210;27.910;2022-12-29T14:29:46;102094.03;;;9.10;100.00
37368;BME280;23240;43.210;27.910;2022-12-29T14:37:32;102084.59;;;9.03;100.00
37368;BME280;23240;43.210;27.910;2022-12-29T14:40:21;102080.63;;;8.94;100.00
37368;BME280;23240;43.210;27.910;2022-12-29T14:42:53;102086.84;;;8.95;100.00
37368;BME280;23240;43.210;27.910;2022-12-29T14:47:50;102085.34;;;8.89;100.00
37368;BME280;23240;43.210;27.910;2022-12-29T14:50:39;102088.25;;;8.85;100.00
37368;BME280;23240;43.210;27.910;2022-12-29T14:53:06;102085.75;;;8.82;100.00
37368;BME280;23240;43.210;27.910;2022-12-29T14:55:55;102089.53;;;8.78;100.00
37368;BME280;23240;43.210;27.910;2022-12-29T14:58:30;102095.13;;;8.73;100.00
37368;BME280;23240;43.210;27.910;2022-12-29T15:00:58;102095.97;;;8.73;100.00
37368;BME280;23240;43.210;27.910;2022-12-29T15:04:13;102095.38;;;8.68;100.00
37368;BME280;23240;43.210;27.910;2022-12-29T15:06:18;102111.28;;;8.70;100.00
37368;BME280;23240;43.210;27.910;2022-12-29T15:16:57;102113.19;;;8.68;100.00
37368;BME280;23240;43.210;27.910;2022-12-29T15:19:23;102105.28;;;8.66;100.00
37368;BME280;23240;43.210;27.910;2022-12-29T15:21:49;102096.47;;;8.64;100.00
37368;BME280;23240;43.210;27.910;2022-12-29T15:24:15;102105.44;;;8.63;100.00
37368;BME280;23240;43.210;27.910;2022-12-29T15:26:47;102104.66;;;8.61;100.00
37368;BME280;23240;43.210;27.910;2022-12-29T15:29:36;102093.25;;;8.58;100.00
37368;BME280;23240;43.210;27.910;2022-12-29T15:32:16;102095.13;;;8.56;100.00
37368;BME280;23240;43.210;27.910;2022-12-29T15:34:47;102100.56;;;8.54;100.00
37368;BME280;23240;43.210;27.910;2022-12-29T15:37:24;102097.78;;;8.56;100.00